sensor_id;sensor_type;location;lat;lon;timestamp;temperature;humidity
435;DHT22;204;48.942;9.256;2023-02-28T00:01:30;-1.00;1.00
435;DHT22;204;48.942;9.256;2023-02-28T00:03:56;-1.10;1.00
435;DHT22;204;48.942;9.256;2023-02-28T00:06:22;-1.10;1.00
435;DHT22;204;48.942;9.256;2023-02-28T00:08:49;-1.10;1.00
435;DHT22;204;48.942;9.256;2023-02-28T00:11:15;-1.10;1.00
435;DHT22;204;48.942;9.256;2023-02-28T00:13:43;-1.10;1.00
435;DHT22;204;48.942;9.256;2023-02-28T00:16:14;-1.00;1.00
435;DHT22;204;48.942;9.256;2023-02-28T00:18:40;-1.00;1.00
435;DHT22;204;48.942;9.256;2023-02-28T00:21:06;-1.00;1.00
435;DHT22;204;48.942;9.256;2023-02-28T00:23:32;-1.00;1.00
435;DHT22;204;48.942;9.256;2023-02-28T00:25:58;-1.00;1.00
435;DHT22;204;48.942;9.256;2023-02-28T00:28:23;-1.00;1.00
435;DHT22;204;48.942;9.256;2023-02-28T00:30:49;-1.00;1.00
435;DHT22;204;48.942;9.256;2023-02-28T00:33:15;-1.10;1.00
435;DHT22;204;48.942;9.256;2023-02-28T00:35:41;-1.00;1.00
435;DHT22;204;48.942;9.256;2023-02-28T00:38:06;-1.00;1.00
435;DHT22;204;48.942;9.256;2023-02-28T00:40:32;-1.00;1.00
435;DHT22;204;48.942;9.256;2023-02-28T00:42:57;-1.00;1.00
435;DHT22;204;48.942;9.256;2023-02-28T00:45:23;-1.00;1.00
435;DHT22;204;48.942;9.256;2023-02-28T00:47:49;-1.00;1.00
435;DHT22;204;48.942;9.256;2023-02-28T00:50:17;-1.00;1.00
435;DHT22;204;48.942;9.256;2023-02-28T00:52:43;-1.00;1.00
435;DHT22;204;48.942;9.256;2023-02-28T00:55:09;-1.00;1.00
435;DHT22;204;48.942;9.256;2023-02-28T00:57:35;-1.00;1.00
435;DHT22;204;48.942;9.256;2023-02-28T01:00:00;-1.00;1.00
435;DHT22;204;48.942;9.256;2023-02-28T01:02:26;-1.00;1.00
435;DHT22;204;48.942;9.256;2023-02-28T01:04:52;-1.00;1.00
435;DHT22;204;48.942;9.256;2023-02-28T01:07:17;-1.00;1.00
435;DHT22;204;48.942;9.256;2023-02-28T01:09:43;-1.00;1.00
435;DHT22;204;48.942;9.256;2023-02-28T01:12:09;-1.10;1.00
435;DHT22;204;48.942;9.256;2023-02-28T01:14:35;-1.00;1.00
435;DHT22;204;48.942;9.256;2023-02-28T01:17:01;-1.00;1.00
435;DHT22;204;48.942;9.256;2023-02-28T01:19:27;-1.00;1.00
435;DHT22;204;48.942;9.256;2023-02-28T01:21:52;-1.00;1.00
435;DHT22;204;48.942;9.256;2023-02-28T01:24:18;-1.00;1.00
435;DHT22;204;48.942;9.256;2023-02-28T01:26:43;-1.00;1.00
435;DHT22;204;48.942;9.256;2023-02-28T01:29:09;-1.10;1.00
435;DHT22;204;48.942;9.256;2023-02-28T01:31:35;-1.10;1.00
435;DHT22;204;48.942;9.256;2023-02-28T01:34:00;-1.10;1.00
435;DHT22;204;48.942;9.256;2023-02-28T01:36:26;-1.00;1.00
435;DHT22;204;48.942;9.256;2023-02-28T01:38:52;-1.00;1.00
435;DHT22;204;48.942;9.256;2023-02-28T01:41:29;-1.10;1.00
435;DHT22;204;48.942;9.256;2023-02-28T01:46:30;-1.10;1.00
435;DHT22;204;48.942;9.256;2023-02-28T01:49:07;-1.10;1.00
435;DHT22;204;48.942;9.256;2023-02-28T01:51:41;-1.10;1.00
435;DHT22;204;48.942;9.256;2023-02-28T01:54:14;-1.10;1.00
435;DHT22;204;48.942;9.256;2023-02-28T01:56:49;-1.10;1.00
435;DHT22;204;48.942;9.256;2023-02-28T01:59:23;-1.10;1.00
435;DHT22;204;48.942;9.256;2023-02-28T02:01:50;-1.10;1.00
435;DHT22;204;48.942;9.256;2023-02-28T02:04:16;-1.20;1.00
435;DHT22;204;48.942;9.256;2023-02-28T02:06:44;-1.20;1.00
435;DHT22;204;48.942;9.256;2023-02-28T02:09:13;-1.20;1.00
435;DHT22;204;48.942;9.256;2023-02-28T02:11:41;-1.20;1.00
435;DHT22;204;48.942;9.256;2023-02-28T02:14:38;-1.20;1.00
435;DHT22;204;48.942;9.256;2023-02-28T02:17:28;-1.20;1.00
435;DHT22;204;48.942;9.256;2023-02-28T02:20:32;-1.20;1.00
435;DHT22;204;48.942;9.256;2023-02-28T02:23:15;-1.20;1.00
435;DHT22;204;48.942;9.256;2023-02-28T02:28:54;-1.20;1.00
435;DHT22;204;48.942;9.256;2023-02-28T02:36:51;-1.20;1.00
435;DHT22;204;48.942;9.256;2023-02-28T02:42:11;-1.20;1.00
435;DHT22;204;48.942;9.256;2023-02-28T02:44:43;-1.10;1.00
435;DHT22;204;48.942;9.256;2023-02-28T02:47:15;-1.10;1.00
435;DHT22;204;48.942;9.256;2023-02-28T02:49:47;-1.10;1.00
435;DHT22;204;48.942;9.256;2023-02-28T02:52:18;-1.10;1.00
435;DHT22;204;48.942;9.256;2023-02-28T02:54:48;-1.00;1.00
435;DHT22;204;48.942;9.256;2023-02-28T02:57:30;-1.00;1.00
435;DHT22;204;48.942;9.256;2023-02-28T02:59:56;-1.00;1.00
435;DHT22;204;48.942;9.256;2023-02-28T03:02:23;-0.90;1.00
435;DHT22;204;48.942;9.256;2023-02-28T03:04:59;-0.90;1.00
435;DHT22;204;48.942;9.256;2023-02-28T03:07:26;-0.80;1.00
435;DHT22;204;48.942;9.256;2023-02-28T03:09:53;-0.80;1.00
435;DHT22;204;48.942;9.256;2023-02-28T03:12:19;-0.70;1.00
435;DHT22;204;48.942;9.256;2023-02-28T03:20:27;-0.60;1.00
435;DHT22;204;48.942;9.256;2023-02-28T03:23:19;-0.60;1.00
435;DHT22;204;48.942;9.256;2023-02-28T03:25:52;-0.50;1.00
435;DHT22;204;48.942;9.256;2023-02-28T03:33:47;-0.30;1.00
435;DHT22;204;48.942;9.256;2023-02-28T03:36:23;-0.30;1.00
435;DHT22;204;48.942;9.256;2023-02-28T03:38:57;-0.30;1.00
435;DHT22;204;48.942;9.256;2023-02-28T03:41:37;-0.20;1.00
435;DHT22;204;48.942;9.256;2023-02-28T03:47:16;-0.10;1.00
435;DHT22;204;48.942;9.256;2023-02-28T03:50:05;-0.10;1.00
435;DHT22;204;48.942;9.256;2023-02-28T03:52:35;-0.10;1.00
435;DHT22;204;48.942;9.256;2023-02-28T03:55:05;-0.10;1.00
435;DHT22;204;48.942;9.256;2023-02-28T03:57:39;-0.20;1.00
435;DHT22;204;48.942;9.256;2023-02-28T04:00:10;-0.10;1.00
435;DHT22;204;48.942;9.256;2023-02-28T04:02:37;-0.10;1.00
435;DHT22;204;48.942;9.256;2023-02-28T04:05:05;-0.10;1.00
435;DHT22;204;48.942;9.256;2023-02-28T04:07:31;-0.10;1.00
435;DHT22;204;48.942;9.256;2023-02-28T04:09:57;-0.10;1.00
435;DHT22;204;48.942;9.256;2023-02-28T04:12:23;-0.10;1.00
435;DHT22;204;48.942;9.256;2023-02-28T04:14:49;-0.10;1.00
435;DHT22;204;48.942;9.256;2023-02-28T04:17:16;-0.10;1.00
435;DHT22;204;48.942;9.256;2023-02-28T04:19:41;0.00;1.00
435;DHT22;204;48.942;9.256;2023-02-28T04:22:08;0.00;1.00
435;DHT22;204;48.942;9.256;2023-02-28T04:24:35;0.00;1.00
435;DHT22;204;48.942;9.256;2023-02-28T04:27:00;0.00;1.00
435;DHT22;204;48.942;9.256;2023-02-28T04:29:32;0.00;1.00
435;DHT22;204;48.942;9.256;2023-02-28T04:31:59;0.00;1.00
435;DHT22;204;48.942;9.256;2023-02-28T04:34:26;0.00;1.00
435;DHT22;204;48.942;9.256;2023-02-28T04:36:52;0.10;1.00
435;DHT22;204;48.942;9.256;2023-02-28T04:39:21;0.10;1.00
435;DHT22;204;48.942;9.256;2023-02-28T04:41:46;0.10;1.00
435;DHT22;204;48.942;9.256;2023-02-28T04:44:13;0.10;1.00
435;DHT22;204;48.942;9.256;2023-02-28T04:46:38;0.10;1.00
435;DHT22;204;48.942;9.256;2023-02-28T04:49:04;0.10;1.00
435;DHT22;204;48.942;9.256;2023-02-28T04:51:29;0.10;1.00
435;DHT22;204;48.942;9.256;2023-02-28T04:53:55;0.10;1.00
435;DHT22;204;48.942;9.256;2023-02-28T04:56:21;0.10;1.00
435;DHT22;204;48.942;9.256;2023-02-28T04:58:48;0.10;1.00
435;DHT22;204;48.942;9.256;2023-02-28T05:01:32;0.10;1.00
435;DHT22;204;48.942;9.256;2023-02-28T05:04:00;0.10;1.00
435;DHT22;204;48.942;9.256;2023-02-28T05:06:29;0.10;1.00
435;DHT22;204;48.942;9.256;2023-02-28T05:08:55;0.10;1.00
435;DHT22;204;48.942;9.256;2023-02-28T05:11:23;0.10;1.00
435;DHT22;204;48.942;9.256;2023-02-28T05:13:50;0.10;1.00
435;DHT22;204;48.942;9.256;2023-02-28T05:16:16;0.10;1.00
435;DHT22;204;48.942;9.256;2023-02-28T05:18:42;0.10;1.00
435;DHT22;204;48.942;9.256;2023-02-28T05:21:30;0.10;1.00
435;DHT22;204;48.942;9.256;2023-02-28T05:24:00;0.20;1.00
435;DHT22;204;48.942;9.256;2023-02-28T05:26:27;0.10;1.00
435;DHT22;204;48.942;9.256;2023-02-28T05:28:53;0.20;1.00
435;DHT22;204;48.942;9.256;2023-02-28T05:31:19;0.20;1.00
435;DHT22;204;48.942;9.256;2023-02-28T05:33:45;0.20;1.00
435;DHT22;204;48.942;9.256;2023-02-28T05:36:10;0.20;1.00
435;DHT22;204;48.942;9.256;2023-02-28T05:38:36;0.20;1.00
435;DHT22;204;48.942;9.256;2023-02-28T05:41:09;0.30;1.00
435;DHT22;204;48.942;9.256;2023-02-28T05:43:35;0.30;1.00
435;DHT22;204;48.942;9.256;2023-02-28T05:46:11;0.20;1.00
435;DHT22;204;48.942;9.256;2023-02-28T05:48:38;0.20;1.00
435;DHT22;204;48.942;9.256;2023-02-28T05:51:05;0.30;1.00
435;DHT22;204;48.942;9.256;2023-02-28T05:53:31;0.30;1.00
435;DHT22;204;48.942;9.256;2023-02-28T05:55:57;0.30;1.00
435;DHT22;204;48.942;9.256;2023-02-28T05:58:23;0.30;1.00
435;DHT22;204;48.942;9.256;2023-02-28T06:00:50;0.20;1.00
435;DHT22;204;48.942;9.256;2023-02-28T06:03:16;0.20;1.00
435;DHT22;204;48.942;9.256;2023-02-28T06:05:41;0.20;1.00
435;DHT22;204;48.942;9.256;2023-02-28T06:08:07;0.20;1.00
435;DHT22;204;48.942;9.256;2023-02-28T06:10:35;0.30;1.00
435;DHT22;204;48.942;9.256;2023-02-28T06:13:02;0.30;1.00
435;DHT22;204;48.942;9.256;2023-02-28T06:15:28;0.30;1.00
435;DHT22;204;48.942;9.256;2023-02-28T06:17:54;0.30;1.00
435;DHT22;204;48.942;9.256;2023-02-28T06:20:22;0.40;1.00
435;DHT22;204;48.942;9.256;2023-02-28T06:22:48;0.40;1.00
435;DHT22;204;48.942;9.256;2023-02-28T06:25:15;0.40;1.00
435;DHT22;204;48.942;9.256;2023-02-28T06:27:41;0.40;1.00
435;DHT22;204;48.942;9.256;2023-02-28T06:30:09;0.50;1.00
435;DHT22;204;48.942;9.256;2023-02-28T06:32:35;0.50;1.00
435;DHT22;204;48.942;9.256;2023-02-28T06:35:01;0.50;1.00
435;DHT22;204;48.942;9.256;2023-02-28T06:37:27;0.50;1.00
435;DHT22;204;48.942;9.256;2023-02-28T06:39:54;0.60;1.00
435;DHT22;204;48.942;9.256;2023-02-28T06:42:22;0.70;1.00
435;DHT22;204;48.942;9.256;2023-02-28T06:44:50;0.60;1.00
435;DHT22;204;48.942;9.256;2023-02-28T06:47:16;0.60;1.00
435;DHT22;204;48.942;9.256;2023-02-28T06:49:41;0.60;1.00
435;DHT22;204;48.942;9.256;2023-02-28T06:52:07;0.70;1.00
435;DHT22;204;48.942;9.256;2023-02-28T06:54:34;0.60;1.00
435;DHT22;204;48.942;9.256;2023-02-28T06:56:59;0.60;1.00
435;DHT22;204;48.942;9.256;2023-02-28T06:59:25;0.70;1.00
435;DHT22;204;48.942;9.256;2023-02-28T07:01:50;0.70;1.00
435;DHT22;204;48.942;9.256;2023-02-28T07:04:16;0.70;1.00
435;DHT22;204;48.942;9.256;2023-02-28T07:06:41;0.80;1.00
435;DHT22;204;48.942;9.256;2023-02-28T07:09:07;0.80;1.00
435;DHT22;204;48.942;9.256;2023-02-28T07:11:33;0.80;1.00
435;DHT22;204;48.942;9.256;2023-02-28T07:13:59;0.80;1.00
435;DHT22;204;48.942;9.256;2023-02-28T07:16:25;0.80;1.00
435;DHT22;204;48.942;9.256;2023-02-28T07:18:53;0.90;1.00
435;DHT22;204;48.942;9.256;2023-02-28T07:21:19;0.90;1.00
435;DHT22;204;48.942;9.256;2023-02-28T07:23:45;0.90;1.00
435;DHT22;204;48.942;9.256;2023-02-28T07:26:13;1.00;1.00
435;DHT22;204;48.942;9.256;2023-02-28T07:28:43;1.00;1.00
435;DHT22;204;48.942;9.256;2023-02-28T07:31:10;1.00;1.00
435;DHT22;204;48.942;9.256;2023-02-28T07:33:36;1.10;1.00
435;DHT22;204;48.942;9.256;2023-02-28T07:36:03;1.20;1.00
435;DHT22;204;48.942;9.256;2023-02-28T07:38:29;1.30;1.00
435;DHT22;204;48.942;9.256;2023-02-28T07:40:55;1.30;1.00
435;DHT22;204;48.942;9.256;2023-02-28T07:43:20;1.30;1.00
435;DHT22;204;48.942;9.256;2023-02-28T07:45:46;1.30;1.00
435;DHT22;204;48.942;9.256;2023-02-28T07:48:11;1.30;1.00
435;DHT22;204;48.942;9.256;2023-02-28T07:50:37;1.20;1.00
435;DHT22;204;48.942;9.256;2023-02-28T07:53:03;1.20;1.00
435;DHT22;204;48.942;9.256;2023-02-28T07:55:29;1.30;1.00
435;DHT22;204;48.942;9.256;2023-02-28T07:57:57;1.30;1.00
435;DHT22;204;48.942;9.256;2023-02-28T08:00:23;1.30;1.00
435;DHT22;204;48.942;9.256;2023-02-28T08:02:49;1.30;1.00
435;DHT22;204;48.942;9.256;2023-02-28T08:05:14;1.30;1.00
435;DHT22;204;48.942;9.256;2023-02-28T08:07:40;1.30;1.00
435;DHT22;204;48.942;9.256;2023-02-28T08:10:06;1.30;1.00
435;DHT22;204;48.942;9.256;2023-02-28T08:12:32;1.20;1.00
435;DHT22;204;48.942;9.256;2023-02-28T08:14:58;1.20;1.00
435;DHT22;204;48.942;9.256;2023-02-28T08:17:23;1.20;1.00
435;DHT22;204;48.942;9.256;2023-02-28T08:19:49;1.20;1.00
435;DHT22;204;48.942;9.256;2023-02-28T08:22:14;1.20;1.00
435;DHT22;204;48.942;9.256;2023-02-28T08:24:43;1.40;1.00
435;DHT22;204;48.942;9.256;2023-02-28T08:27:09;1.40;1.00
435;DHT22;204;48.942;9.256;2023-02-28T08:29:37;1.40;1.00
435;DHT22;204;48.942;9.256;2023-02-28T08:32:03;1.40;1.00
435;DHT22;204;48.942;9.256;2023-02-28T08:34:29;1.50;1.00
435;DHT22;204;48.942;9.256;2023-02-28T08:36:55;1.40;1.00
435;DHT22;204;48.942;9.256;2023-02-28T08:39:21;1.40;1.00
435;DHT22;204;48.942;9.256;2023-02-28T08:41:46;1.40;1.00
435;DHT22;204;48.942;9.256;2023-02-28T08:44:12;1.40;1.00
435;DHT22;204;48.942;9.256;2023-02-28T08:46:38;1.40;1.00
435;DHT22;204;48.942;9.256;2023-02-28T08:49:04;1.40;1.00
435;DHT22;204;48.942;9.256;2023-02-28T08:51:30;1.50;1.00
435;DHT22;204;48.942;9.256;2023-02-28T08:53:59;1.60;1.00
435;DHT22;204;48.942;9.256;2023-02-28T08:56:26;1.50;1.00
435;DHT22;204;48.942;9.256;2023-02-28T08:58:55;1.70;1.00
435;DHT22;204;48.942;9.256;2023-02-28T09:01:26;1.70;1.00
435;DHT22;204;48.942;9.256;2023-02-28T09:03:56;1.70;1.00
435;DHT22;204;48.942;9.256;2023-02-28T09:06:24;1.80;1.00
435;DHT22;204;48.942;9.256;2023-02-28T09:08:50;1.80;1.00
435;DHT22;204;48.942;9.256;2023-02-28T09:11:16;1.90;1.00
435;DHT22;204;48.942;9.256;2023-02-28T09:13:42;2.00;1.00
435;DHT22;204;48.942;9.256;2023-02-28T09:16:10;2.00;1.00
435;DHT22;204;48.942;9.256;2023-02-28T09:18:37;2.00;1.00
435;DHT22;204;48.942;9.256;2023-02-28T09:21:15;2.10;1.00
435;DHT22;204;48.942;9.256;2023-02-28T09:23:42;2.10;1.00
435;DHT22;204;48.942;9.256;2023-02-28T09:26:13;2.20;1.00
435;DHT22;204;48.942;9.256;2023-02-28T09:28:39;2.30;1.00
435;DHT22;204;48.942;9.256;2023-02-28T09:31:05;2.40;1.00
435;DHT22;204;48.942;9.256;2023-02-28T09:33:30;2.50;1.00
435;DHT22;204;48.942;9.256;2023-02-28T09:36:00;2.60;1.00
435;DHT22;204;48.942;9.256;2023-02-28T09:38:27;2.80;1.00
435;DHT22;204;48.942;9.256;2023-02-28T09:40:55;3.00;1.00
435;DHT22;204;48.942;9.256;2023-02-28T09:43:24;3.00;1.00
435;DHT22;204;48.942;9.256;2023-02-28T09:48:30;3.30;1.00
435;DHT22;204;48.942;9.256;2023-02-28T09:53:36;3.50;1.00
435;DHT22;204;48.942;9.256;2023-02-28T09:56:08;3.60;1.00
435;DHT22;204;48.942;9.256;2023-02-28T10:01:17;4.10;1.00
435;DHT22;204;48.942;9.256;2023-02-28T10:04:08;4.10;1.00
435;DHT22;204;48.942;9.256;2023-02-28T10:06:49;4.30;1.00
435;DHT22;204;48.942;9.256;2023-02-28T10:09:25;4.30;1.00
435;DHT22;204;48.942;9.256;2023-02-28T10:11:56;4.30;1.00
435;DHT22;204;48.942;9.256;2023-02-28T10:14:25;4.20;1.00
435;DHT22;204;48.942;9.256;2023-02-28T10:17:11;4.30;1.00
435;DHT22;204;48.942;9.256;2023-02-28T10:20:02;4.30;1.00
435;DHT22;204;48.942;9.256;2023-02-28T10:25:18;4.20;1.00
435;DHT22;204;48.942;9.256;2023-02-28T10:27:44;4.20;1.00
435;DHT22;204;48.942;9.256;2023-02-28T10:30:11;4.10;1.00
435;DHT22;204;48.942;9.256;2023-02-28T10:32:40;4.10;1.00
435;DHT22;204;48.942;9.256;2023-02-28T10:35:10;4.20;1.00
435;DHT22;204;48.942;9.256;2023-02-28T10:37:41;4.20;1.00
435;DHT22;204;48.942;9.256;2023-02-28T10:42:56;4.20;1.00
435;DHT22;204;48.942;9.256;2023-02-28T10:45:22;4.20;1.00
435;DHT22;204;48.942;9.256;2023-02-28T10:47:55;4.20;1.00
435;DHT22;204;48.942;9.256;2023-02-28T10:50:37;4.40;1.00
435;DHT22;204;48.942;9.256;2023-02-28T10:55:36;4.70;1.00
435;DHT22;204;48.942;9.256;2023-02-28T10:58:02;4.80;1.00
435;DHT22;204;48.942;9.256;2023-02-28T11:00:33;5.00;1.00
435;DHT22;204;48.942;9.256;2023-02-28T11:03:00;5.20;1.00
435;DHT22;204;48.942;9.256;2023-02-28T11:05:32;5.40;1.00
435;DHT22;204;48.942;9.256;2023-02-28T11:10:31;5.50;1.00
435;DHT22;204;48.942;9.256;2023-02-28T11:13:00;5.50;1.00
435;DHT22;204;48.942;9.256;2023-02-28T11:15:28;5.60;1.00
435;DHT22;204;48.942;9.256;2023-02-28T11:18:01;5.60;1.00
435;DHT22;204;48.942;9.256;2023-02-28T11:20:30;5.40;1.00
435;DHT22;204;48.942;9.256;2023-02-28T11:22:57;5.30;1.00
435;DHT22;204;48.942;9.256;2023-02-28T11:25:30;5.20;1.00
435;DHT22;204;48.942;9.256;2023-02-28T11:28:01;5.00;1.00
435;DHT22;204;48.942;9.256;2023-02-28T11:30:37;4.90;1.00
435;DHT22;204;48.942;9.256;2023-02-28T11:33:37;4.80;1.00
435;DHT22;204;48.942;9.256;2023-02-28T11:36:20;4.80;1.00
435;DHT22;204;48.942;9.256;2023-02-28T11:38:47;4.80;1.00
435;DHT22;204;48.942;9.256;2023-02-28T11:47:03;4.90;1.00
435;DHT22;204;48.942;9.256;2023-02-28T11:49:37;4.80;1.00
435;DHT22;204;48.942;9.256;2023-02-28T11:52:21;4.90;1.00
435;DHT22;204;48.942;9.256;2023-02-28T12:24:50;5.40;1.00
435;DHT22;204;48.942;9.256;2023-02-28T12:27:22;5.30;1.00
435;DHT22;204;48.942;9.256;2023-02-28T12:32:30;5.60;1.00
435;DHT22;204;48.942;9.256;2023-02-28T12:37:39;5.70;1.00
435;DHT22;204;48.942;9.256;2023-02-28T12:40:28;5.80;1.00
435;DHT22;204;48.942;9.256;2023-02-28T12:43:04;5.80;1.00
435;DHT22;204;48.942;9.256;2023-02-28T12:45:59;5.80;1.00
435;DHT22;204;48.942;9.256;2023-02-28T12:48:33;5.80;1.00
435;DHT22;204;48.942;9.256;2023-02-28T12:51:03;5.90;1.00
435;DHT22;204;48.942;9.256;2023-02-28T12:59:48;5.90;1.00
435;DHT22;204;48.942;9.256;2023-02-28T13:02:09;5.80;1.00
435;DHT22;204;48.942;9.256;2023-02-28T13:10:16;5.90;1.00
435;DHT22;204;48.942;9.256;2023-02-28T13:12:51;6.00;1.00
435;DHT22;204;48.942;9.256;2023-02-28T13:15:27;6.00;1.00
435;DHT22;204;48.942;9.256;2023-02-28T13:17:57;6.00;1.00
435;DHT22;204;48.942;9.256;2023-02-28T13:20:32;6.00;1.00
435;DHT22;204;48.942;9.256;2023-02-28T13:22:59;6.00;1.00
435;DHT22;204;48.942;9.256;2023-02-28T13:28:12;6.10;1.00
435;DHT22;204;48.942;9.256;2023-02-28T13:33:35;6.20;1.00
435;DHT22;204;48.942;9.256;2023-02-28T13:36:08;6.30;1.00
435;DHT22;204;48.942;9.256;2023-02-28T13:38:42;6.30;1.00
435;DHT22;204;48.942;9.256;2023-02-28T13:44:15;6.40;1.00
435;DHT22;204;48.942;9.256;2023-02-28T13:49:31;6.40;1.00
435;DHT22;204;48.942;9.256;2023-02-28T13:54:56;6.20;1.00
435;DHT22;204;48.942;9.256;2023-02-28T14:06:15;6.20;1.00
435;DHT22;204;48.942;9.256;2023-02-28T14:08:55;6.30;1.00
435;DHT22;204;48.942;9.256;2023-02-28T14:11:34;6.30;1.00
435;DHT22;204;48.942;9.256;2023-02-28T14:14:00;6.20;1.00
435;DHT22;204;48.942;9.256;2023-02-28T14:16:41;6.20;1.00
435;DHT22;204;48.942;9.256;2023-02-28T14:19:29;6.10;1.00
435;DHT22;204;48.942;9.256;2023-02-28T14:27:15;6.20;1.00
435;DHT22;204;48.942;9.256;2023-02-28T14:38:33;6.20;1.00
435;DHT22;204;48.942;9.256;2023-02-28T14:41:04;6.30;1.00
435;DHT22;204;48.942;9.256;2023-02-28T14:43:32;6.30;1.00
435;DHT22;204;48.942;9.256;2023-02-28T14:46:02;6.20;1.00
435;DHT22;204;48.942;9.256;2023-02-28T14:48:29;6.20;1.00
435;DHT22;204;48.942;9.256;2023-02-28T14:51:00;6.30;1.00
435;DHT22;204;48.942;9.256;2023-02-28T14:53:29;6.20;1.00
435;DHT22;204;48.942;9.256;2023-02-28T14:55:55;6.20;1.00
435;DHT22;204;48.942;9.256;2023-02-28T14:58:29;6.20;1.00
435;DHT22;204;48.942;9.256;2023-02-28T15:01:00;6.20;1.00
435;DHT22;204;48.942;9.256;2023-02-28T15:03:30;6.20;1.00
435;DHT22;204;48.942;9.256;2023-02-28T15:05:59;6.20;1.00
435;DHT22;204;48.942;9.256;2023-02-28T15:08:26;6.20;1.00
435;DHT22;204;48.942;9.256;2023-02-28T15:13:25;6.20;1.00
435;DHT22;204;48.942;9.256;2023-02-28T15:16:00;6.30;1.00
435;DHT22;204;48.942;9.256;2023-02-28T15:19:26;6.30;1.00
435;DHT22;204;48.942;9.256;2023-02-28T15:21:59;6.30;1.00
435;DHT22;204;48.942;9.256;2023-02-28T15:24:41;6.30;1.00
435;DHT22;204;48.942;9.256;2023-02-28T15:27:32;6.20;1.00
435;DHT22;204;48.942;9.256;2023-02-28T15:30:05;6.10;1.00
435;DHT22;204;48.942;9.256;2023-02-28T15:32:37;6.00;1.00
435;DHT22;204;48.942;9.256;2023-02-28T15:38:21;6.00;1.00
435;DHT22;204;48.942;9.256;2023-02-28T15:40:56;6.00;1.00
435;DHT22;204;48.942;9.256;2023-02-28T15:43:30;5.90;1.00
435;DHT22;204;48.942;9.256;2023-02-28T15:46:02;5.90;1.00
435;DHT22;204;48.942;9.256;2023-02-28T15:51:08;5.80;1.00
435;DHT22;204;48.942;9.256;2023-02-28T15:54:00;5.80;1.00
435;DHT22;204;48.942;9.256;2023-02-28T15:58:56;5.70;1.00
435;DHT22;204;48.942;9.256;2023-02-28T16:01:28;5.70;1.00
435;DHT22;204;48.942;9.256;2023-02-28T16:04:02;5.60;1.00
435;DHT22;204;48.942;9.256;2023-02-28T16:08:59;5.50;1.00
435;DHT22;204;48.942;9.256;2023-02-28T16:11:25;5.50;1.00
435;DHT22;204;48.942;9.256;2023-02-28T16:13:51;5.40;1.00
435;DHT22;204;48.942;9.256;2023-02-28T16:16:23;5.40;1.00
435;DHT22;204;48.942;9.256;2023-02-28T16:18:49;5.30;1.00
435;DHT22;204;48.942;9.256;2023-02-28T16:21:15;5.30;1.00
435;DHT22;204;48.942;9.256;2023-02-28T16:23:41;5.20;1.00
435;DHT22;204;48.942;9.256;2023-02-28T16:26:08;5.20;1.00
435;DHT22;204;48.942;9.256;2023-02-28T16:28:37;5.20;1.00
435;DHT22;204;48.942;9.256;2023-02-28T16:31:05;5.10;1.00
435;DHT22;204;48.942;9.256;2023-02-28T16:33:32;5.10;1.00
435;DHT22;204;48.942;9.256;2023-02-28T16:35:59;5.10;1.00
435;DHT22;204;48.942;9.256;2023-02-28T16:38:24;5.00;1.00
435;DHT22;204;48.942;9.256;2023-02-28T16:40:51;5.00;1.00
435;DHT22;204;48.942;9.256;2023-02-28T16:43:24;4.90;1.00
435;DHT22;204;48.942;9.256;2023-02-28T16:45:57;4.80;1.00
435;DHT22;204;48.942;9.256;2023-02-28T16:48:25;4.70;1.00
435;DHT22;204;48.942;9.256;2023-02-28T16:50:51;4.70;1.00
435;DHT22;204;48.942;9.256;2023-02-28T16:53:17;4.70;1.00
435;DHT22;204;48.942;9.256;2023-02-28T16:55:42;4.70;1.00
435;DHT22;204;48.942;9.256;2023-02-28T16:58:13;4.60;1.00
435;DHT22;204;48.942;9.256;2023-02-28T17:00:39;4.50;1.00
435;DHT22;204;48.942;9.256;2023-02-28T17:03:05;4.50;1.00
435;DHT22;204;48.942;9.256;2023-02-28T17:05:36;4.40;1.00
435;DHT22;204;48.942;9.256;2023-02-28T17:08:02;4.40;1.00
435;DHT22;204;48.942;9.256;2023-02-28T17:10:29;4.30;1.00
435;DHT22;204;48.942;9.256;2023-02-28T17:12:54;4.20;1.00
435;DHT22;204;48.942;9.256;2023-02-28T17:15:20;4.20;1.00
435;DHT22;204;48.942;9.256;2023-02-28T17:17:47;4.10;1.00
435;DHT22;204;48.942;9.256;2023-02-28T17:20:20;4.00;1.00
435;DHT22;204;48.942;9.256;2023-02-28T17:22:49;4.00;1.00
435;DHT22;204;48.942;9.256;2023-02-28T17:25:15;3.90;1.00
435;DHT22;204;48.942;9.256;2023-02-28T17:27:42;3.80;1.00
435;DHT22;204;48.942;9.256;2023-02-28T17:32:40;3.70;1.00
435;DHT22;204;48.942;9.256;2023-02-28T17:35:06;3.60;1.00
435;DHT22;204;48.942;9.256;2023-02-28T17:37:32;3.60;1.00
435;DHT22;204;48.942;9.256;2023-02-28T17:39:57;3.50;1.00
435;DHT22;204;48.942;9.256;2023-02-28T17:42:23;3.40;1.00
435;DHT22;204;48.942;9.256;2023-02-28T17:44:49;3.30;1.00
435;DHT22;204;48.942;9.256;2023-02-28T17:47:14;3.30;1.00
435;DHT22;204;48.942;9.256;2023-02-28T17:49:40;3.20;1.00
435;DHT22;204;48.942;9.256;2023-02-28T17:52:06;3.20;1.00
435;DHT22;204;48.942;9.256;2023-02-28T17:54:31;3.10;1.00
435;DHT22;204;48.942;9.256;2023-02-28T17:56:57;3.10;1.00
435;DHT22;204;48.942;9.256;2023-02-28T17:59:22;3.00;1.00
435;DHT22;204;48.942;9.256;2023-02-28T18:01:48;3.00;1.00
435;DHT22;204;48.942;9.256;2023-02-28T18:04:14;2.90;1.00
435;DHT22;204;48.942;9.256;2023-02-28T18:06:42;2.80;1.00
435;DHT22;204;48.942;9.256;2023-02-28T18:09:21;2.80;1.00
435;DHT22;204;48.942;9.256;2023-02-28T18:11:47;2.70;1.00
435;DHT22;204;48.942;9.256;2023-02-28T18:14:17;2.60;1.00
435;DHT22;204;48.942;9.256;2023-02-28T18:16:43;2.60;1.00
435;DHT22;204;48.942;9.256;2023-02-28T18:19:10;2.50;1.00
435;DHT22;204;48.942;9.256;2023-02-28T18:21:50;2.40;1.00
435;DHT22;204;48.942;9.256;2023-02-28T18:24:17;2.30;1.00
435;DHT22;204;48.942;9.256;2023-02-28T18:26:43;2.30;1.00
435;DHT22;204;48.942;9.256;2023-02-28T18:29:16;2.20;1.00
435;DHT22;204;48.942;9.256;2023-02-28T18:31:42;2.10;1.00
435;DHT22;204;48.942;9.256;2023-02-28T18:34:07;2.00;1.00
435;DHT22;204;48.942;9.256;2023-02-28T18:36:33;1.90;1.00
435;DHT22;204;48.942;9.256;2023-02-28T18:38:58;1.80;1.00
435;DHT22;204;48.942;9.256;2023-02-28T18:41:24;1.80;1.00
435;DHT22;204;48.942;9.256;2023-02-28T18:43:50;1.80;1.00
435;DHT22;204;48.942;9.256;2023-02-28T18:46:17;1.70;1.00
435;DHT22;204;48.942;9.256;2023-02-28T18:48:43;1.70;1.00
435;DHT22;204;48.942;9.256;2023-02-28T18:51:28;1.70;1.00
435;DHT22;204;48.942;9.256;2023-02-28T18:53:54;1.70;1.00
435;DHT22;204;48.942;9.256;2023-02-28T18:56:22;1.60;1.00
435;DHT22;204;48.942;9.256;2023-02-28T18:58:48;1.60;1.00
435;DHT22;204;48.942;9.256;2023-02-28T19:01:18;1.50;1.00
435;DHT22;204;48.942;9.256;2023-02-28T19:03:45;1.50;1.00
435;DHT22;204;48.942;9.256;2023-02-28T19:06:11;1.50;1.00
435;DHT22;204;48.942;9.256;2023-02-28T19:08:37;1.50;1.00
435;DHT22;204;48.942;9.256;2023-02-28T19:11:13;1.40;1.00
435;DHT22;204;48.942;9.256;2023-02-28T19:13:40;1.40;1.00
435;DHT22;204;48.942;9.256;2023-02-28T19:16:07;1.40;1.00
435;DHT22;204;48.942;9.256;2023-02-28T19:18:34;1.30;1.00
435;DHT22;204;48.942;9.256;2023-02-28T19:21:00;1.30;1.00
435;DHT22;204;48.942;9.256;2023-02-28T19:23:26;1.30;1.00
435;DHT22;204;48.942;9.256;2023-02-28T19:25:52;1.20;1.00
435;DHT22;204;48.942;9.256;2023-02-28T19:28:18;1.20;1.00
435;DHT22;204;48.942;9.256;2023-02-28T19:30:48;1.20;1.00
435;DHT22;204;48.942;9.256;2023-02-28T19:33:15;1.10;1.00
435;DHT22;204;48.942;9.256;2023-02-28T19:35:41;1.10;1.00
435;DHT22;204;48.942;9.256;2023-02-28T19:38:07;1.00;1.00
435;DHT22;204;48.942;9.256;2023-02-28T19:40:34;0.90;1.00
435;DHT22;204;48.942;9.256;2023-02-28T19:42:59;0.90;1.00
435;DHT22;204;48.942;9.256;2023-02-28T19:45:25;0.80;1.00
435;DHT22;204;48.942;9.256;2023-02-28T19:47:50;0.80;1.00
435;DHT22;204;48.942;9.256;2023-02-28T19:50:16;0.70;1.00
435;DHT22;204;48.942;9.256;2023-02-28T19:52:42;0.70;1.00